sensor_id;sensor_type;location;lat;lon;timestamp;P1;durP1;ratioP1;P2;durP2;ratioP2
56269;SDS011;42176;43.240;27.880;2023-07-24T00:01:43;3.50;;;3.20;;
56269;SDS011;42176;43.240;27.880;2023-07-24T00:03:44;4.87;;;3.00;;
56269;SDS011;42176;43.240;27.880;2023-07-24T00:05:45;3.45;;;2.80;;
56269;SDS011;42176;43.240;27.880;2023-07-24T00:07:45;6.03;;;2.87;;
56269;SDS011;42176;43.240;27.880;2023-07-24T00:09:46;5.13;;;2.73;;
56269;SDS011;42176;43.240;27.880;2023-07-24T00:11:46;4.00;;;2.60;;
56269;SDS011;42176;43.240;27.880;2023-07-24T00:13:46;3.73;;;2.67;;
56269;SDS011;42176;43.240;27.880;2023-07-24T00:15:47;4.37;;;3.30;;
56269;SDS011;42176;43.240;27.880;2023-07-24T00:17:48;4.97;;;2.70;;
56269;SDS011;42176;43.240;27.880;2023-07-24T00:19:48;2.80;;;2.60;;
56269;SDS011;42176;43.240;27.880;2023-07-24T00:21:49;5.03;;;2.60;;
56269;SDS011;42176;43.240;27.880;2023-07-24T00:23:49;3.43;;;2.90;;
56269;SDS011;42176;43.240;27.880;2023-07-24T00:25:50;3.13;;;2.53;;
56269;SDS011;42176;43.240;27.880;2023-07-24T00:27:50;3.33;;;2.40;;
56269;SDS011;42176;43.240;27.880;2023-07-24T00:29:50;5.07;;;3.47;;
56269;SDS011;42176;43.240;27.880;2023-07-24T00:31:51;4.97;;;2.70;;
56269;SDS011;42176;43.240;27.880;2023-07-24T00:33:51;3.70;;;2.80;;
56269;SDS011;42176;43.240;27.880;2023-07-24T00:35:55;4.70;;;3.03;;
56269;SDS011;42176;43.240;27.880;2023-07-24T00:37:57;2.92;;;2.42;;
56269;SDS011;42176;43.240;27.880;2023-07-24T00:39:57;7.37;;;2.70;;
56269;SDS011;42176;43.240;27.880;2023-07-24T00:41:58;3.70;;;2.57;;
56269;SDS011;42176;43.240;27.880;2023-07-24T00:43:58;3.03;;;2.43;;
56269;SDS011;42176;43.240;27.880;2023-07-24T00:45:59;3.83;;;3.10;;
56269;SDS011;42176;43.240;27.880;2023-07-24T00:47:59;3.47;;;2.57;;
56269;SDS011;42176;43.240;27.880;2023-07-24T00:50:00;4.57;;;2.83;;
56269;SDS011;42176;43.240;27.880;2023-07-24T00:52:01;5.55;;;2.80;;
56269;SDS011;42176;43.240;27.880;2023-07-24T00:54:02;6.20;;;3.20;;
56269;SDS011;42176;43.240;27.880;2023-07-24T00:56:03;3.25;;;2.80;;
56269;SDS011;42176;43.240;27.880;2023-07-24T00:58:05;4.38;;;3.03;;
56269;SDS011;42176;43.240;27.880;2023-07-24T01:00:06;6.93;;;2.87;;
56269;SDS011;42176;43.240;27.880;2023-07-24T01:02:07;3.22;;;2.75;;
56269;SDS011;42176;43.240;27.880;2023-07-24T01:06:09;2.77;;;2.57;;
56269;SDS011;42176;43.240;27.880;2023-07-24T01:08:09;5.05;;;2.90;;
56269;SDS011;42176;43.240;27.880;2023-07-24T01:10:10;4.33;;;2.90;;
56269;SDS011;42176;43.240;27.880;2023-07-24T01:12:17;4.45;;;3.00;;
56269;SDS011;42176;43.240;27.880;2023-07-24T01:14:23;4.43;;;2.88;;
56269;SDS011;42176;43.240;27.880;2023-07-24T01:16:29;3.78;;;2.78;;
56269;SDS011;42176;43.240;27.880;2023-07-24T01:18:36;3.78;;;3.05;;
56269;SDS011;42176;43.240;27.880;2023-07-24T01:20:52;4.45;;;3.05;;
56269;SDS011;42176;43.240;27.880;2023-07-24T01:27:31;4.20;;;3.03;;
56269;SDS011;42176;43.240;27.880;2023-07-24T01:29:32;4.30;;;2.75;;
56269;SDS011;42176;43.240;27.880;2023-07-24T01:31:32;4.10;;;3.53;;
56269;SDS011;42176;43.240;27.880;2023-07-24T01:33:33;4.43;;;3.10;;
56269;SDS011;42176;43.240;27.880;2023-07-24T01:35:35;7.20;;;2.83;;
56269;SDS011;42176;43.240;27.880;2023-07-24T01:37:38;3.13;;;2.80;;
56269;SDS011;42176;43.240;27.880;2023-07-24T01:39:40;4.25;;;2.70;;
56269;SDS011;42176;43.240;27.880;2023-07-24T01:41:42;3.92;;;3.53;;
56269;SDS011;42176;43.240;27.880;2023-07-24T01:43:43;4.57;;;3.03;;
56269;SDS011;42176;43.240;27.880;2023-07-24T01:45:43;4.23;;;2.77;;
56269;SDS011;42176;43.240;27.880;2023-07-24T01:47:43;2.83;;;2.63;;
56269;SDS011;42176;43.240;27.880;2023-07-24T01:49:44;3.93;;;2.90;;
56269;SDS011;42176;43.240;27.880;2023-07-24T01:51:45;2.75;;;2.53;;
56269;SDS011;42176;43.240;27.880;2023-07-24T01:53:45;5.33;;;2.67;;
56269;SDS011;42176;43.240;27.880;2023-07-24T01:55:45;4.20;;;2.77;;
56269;SDS011;42176;43.240;27.880;2023-07-24T01:57:46;4.37;;;2.77;;
56269;SDS011;42176;43.240;27.880;2023-07-24T01:59:46;4.20;;;2.97;;
56269;SDS011;42176;43.240;27.880;2023-07-24T02:01:48;4.03;;;2.97;;
56269;SDS011;42176;43.240;27.880;2023-07-24T02:03:49;3.67;;;3.13;;
56269;SDS011;42176;43.240;27.880;2023-07-24T02:05:50;6.87;;;3.07;;
56269;SDS011;42176;43.240;27.880;2023-07-24T02:07:51;6.80;;;3.00;;
56269;SDS011;42176;43.240;27.880;2023-07-24T02:09:51;4.87;;;3.07;;
56269;SDS011;42176;43.240;27.880;2023-07-24T02:11:52;4.10;;;3.10;;
56269;SDS011;42176;43.240;27.880;2023-07-24T02:13:52;9.27;;;3.17;;
56269;SDS011;42176;43.240;27.880;2023-07-24T02:15:53;4.53;;;3.20;;
56269;SDS011;42176;43.240;27.880;2023-07-24T02:17:53;5.28;;;3.03;;
56269;SDS011;42176;43.240;27.880;2023-07-24T02:19:54;3.30;;;3.00;;
56269;SDS011;42176;43.240;27.880;2023-07-24T02:21:54;5.37;;;3.10;;
56269;SDS011;42176;43.240;27.880;2023-07-24T02:23:55;5.80;;;3.17;;
56269;SDS011;42176;43.240;27.880;2023-07-24T02:25:55;5.13;;;3.97;;
56269;SDS011;42176;43.240;27.880;2023-07-24T02:27:55;6.17;;;3.80;;
56269;SDS011;42176;43.240;27.880;2023-07-24T02:29:56;5.63;;;3.27;;
56269;SDS011;42176;43.240;27.880;2023-07-24T02:31:57;3.47;;;3.13;;
56269;SDS011;42176;43.240;27.880;2023-07-24T02:36:00;3.77;;;3.30;;
56269;SDS011;42176;43.240;27.880;2023-07-24T02:38:01;4.25;;;3.17;;
56269;SDS011;42176;43.240;27.880;2023-07-24T02:40:01;4.70;;;3.47;;
56269;SDS011;42176;43.240;27.880;2023-07-24T02:42:02;4.10;;;3.23;;
56269;SDS011;42176;43.240;27.880;2023-07-24T02:44:02;3.83;;;3.03;;
56269;SDS011;42176;43.240;27.880;2023-07-24T02:46:04;4.30;;;3.00;;
56269;SDS011;42176;43.240;27.880;2023-07-24T02:48:04;3.30;;;2.97;;
56269;SDS011;42176;43.240;27.880;2023-07-24T02:50:05;6.10;;;3.70;;
56269;SDS011;42176;43.240;27.880;2023-07-24T02:52:06;5.00;;;3.10;;
56269;SDS011;42176;43.240;27.880;2023-07-24T02:54:06;3.67;;;3.20;;
56269;SDS011;42176;43.240;27.880;2023-07-24T02:56:07;8.07;;;3.90;;
56269;SDS011;42176;43.240;27.880;2023-07-24T02:58:07;4.93;;;3.57;;
56269;SDS011;42176;43.240;27.880;2023-07-24T03:00:08;3.80;;;3.13;;
56269;SDS011;42176;43.240;27.880;2023-07-24T03:04:09;4.37;;;3.10;;
56269;SDS011;42176;43.240;27.880;2023-07-24T03:06:10;6.00;;;3.80;;
56269;SDS011;42176;43.240;27.880;2023-07-24T03:08:10;5.23;;;3.43;;
56269;SDS011;42176;43.240;27.880;2023-07-24T03:10:10;10.40;;;4.10;;
56269;SDS011;42176;43.240;27.880;2023-07-24T03:12:11;6.27;;;3.87;;
56269;SDS011;42176;43.240;27.880;2023-07-24T03:14:11;6.73;;;3.80;;
56269;SDS011;42176;43.240;27.880;2023-07-24T03:16:12;5.53;;;4.17;;
56269;SDS011;42176;43.240;27.880;2023-07-24T03:18:12;5.63;;;3.80;;
56269;SDS011;42176;43.240;27.880;2023-07-24T03:20:16;5.60;;;3.80;;
56269;SDS011;42176;43.240;27.880;2023-07-24T03:22:18;4.85;;;3.80;;
56269;SDS011;42176;43.240;27.880;2023-07-24T03:24:18;5.70;;;4.17;;
56269;SDS011;42176;43.240;27.880;2023-07-24T03:26:19;6.83;;;3.93;;
56269;SDS011;42176;43.240;27.880;2023-07-24T03:28:19;5.00;;;4.13;;
56269;SDS011;42176;43.240;27.880;2023-07-24T03:30:20;4.57;;;3.40;;
56269;SDS011;42176;43.240;27.880;2023-07-24T03:32:20;4.53;;;3.93;;
56269;SDS011;42176;43.240;27.880;2023-07-24T03:34:21;5.03;;;3.83;;
56269;SDS011;42176;43.240;27.880;2023-07-24T03:36:21;5.83;;;3.53;;
56269;SDS011;42176;43.240;27.880;2023-07-24T03:38:21;4.70;;;3.17;;
56269;SDS011;42176;43.240;27.880;2023-07-24T03:40:22;6.87;;;4.00;;
56269;SDS011;42176;43.240;27.880;2023-07-24T03:42:26;4.10;;;3.50;;
56269;SDS011;42176;43.240;27.880;2023-07-24T03:44:27;3.63;;;2.97;;
56269;SDS011;42176;43.240;27.880;2023-07-24T03:46:28;6.90;;;4.00;;
56269;SDS011;42176;43.240;27.880;2023-07-24T03:48:28;3.38;;;3.08;;
56269;SDS011;42176;43.240;27.880;2023-07-24T03:50:29;8.68;;;3.38;;
56269;SDS011;42176;43.240;27.880;2023-07-24T03:52:29;4.15;;;3.20;;
56269;SDS011;42176;43.240;27.880;2023-07-24T03:54:30;8.40;;;3.75;;
56269;SDS011;42176;43.240;27.880;2023-07-24T03:58:30;4.40;;;3.03;;
56269;SDS011;42176;43.240;27.880;2023-07-24T04:00:31;7.97;;;3.47;;
56269;SDS011;42176;43.240;27.880;2023-07-24T04:04:32;9.52;;;6.18;;
56269;SDS011;42176;43.240;27.880;2023-07-24T04:08:33;5.30;;;4.33;;
56269;SDS011;42176;43.240;27.880;2023-07-24T04:12:34;16.40;;;11.77;;
56269;SDS011;42176;43.240;27.880;2023-07-24T04:16:34;5.03;;;3.73;;
56269;SDS011;42176;43.240;27.880;2023-07-24T04:20:35;6.63;;;3.45;;
56269;SDS011;42176;43.240;27.880;2023-07-24T04:24:36;4.70;;;3.47;;
56269;SDS011;42176;43.240;27.880;2023-07-24T04:28:37;8.00;;;4.37;;
56269;SDS011;42176;43.240;27.880;2023-07-24T04:32:38;7.70;;;4.33;;
56269;SDS011;42176;43.240;27.880;2023-07-24T04:34:38;9.77;;;4.65;;
56269;SDS011;42176;43.240;27.880;2023-07-24T04:36:39;13.38;;;4.38;;
56269;SDS011;42176;43.240;27.880;2023-07-24T04:38:39;14.80;;;4.40;;
56269;SDS011;42176;43.240;27.880;2023-07-24T04:40:43;40.13;;;5.03;;
56269;SDS011;42176;43.240;27.880;2023-07-24T04:42:44;9.88;;;4.80;;
56269;SDS011;42176;43.240;27.880;2023-07-24T04:44:44;12.93;;;5.28;;
56269;SDS011;42176;43.240;27.880;2023-07-24T04:46:45;14.20;;;4.72;;
56269;SDS011;42176;43.240;27.880;2023-07-24T04:48:45;13.27;;;6.32;;
56269;SDS011;42176;43.240;27.880;2023-07-24T04:50:46;15.73;;;4.80;;
56269;SDS011;42176;43.240;27.880;2023-07-24T04:52:46;13.05;;;5.78;;
56269;SDS011;42176;43.240;27.880;2023-07-24T04:54:47;7.22;;;4.90;;
56269;SDS011;42176;43.240;27.880;2023-07-24T04:56:47;18.52;;;5.45;;
56269;SDS011;42176;43.240;27.880;2023-07-24T04:58:48;14.65;;;5.50;;
56269;SDS011;42176;43.240;27.880;2023-07-24T05:00:48;12.18;;;5.05;;
56269;SDS011;42176;43.240;27.880;2023-07-24T05:02:49;8.38;;;4.38;;
56269;SDS011;42176;43.240;27.880;2023-07-24T05:04:49;15.43;;;3.78;;
56269;SDS011;42176;43.240;27.880;2023-07-24T05:06:50;7.18;;;3.60;;
56269;SDS011;42176;43.240;27.880;2023-07-24T05:08:52;5.38;;;3.33;;
56269;SDS011;42176;43.240;27.880;2023-07-24T05:10:53;13.90;;;4.57;;
56269;SDS011;42176;43.240;27.880;2023-07-24T05:12:55;3.97;;;3.10;;
56269;SDS011;42176;43.240;27.880;2023-07-24T05:14:56;5.03;;;3.58;;
56269;SDS011;42176;43.240;27.880;2023-07-24T05:16:57;6.57;;;3.00;;
56269;SDS011;42176;43.240;27.880;2023-07-24T05:18:57;5.63;;;3.47;;
56269;SDS011;42176;43.240;27.880;2023-07-24T05:20:58;5.93;;;3.42;;
56269;SDS011;42176;43.240;27.880;2023-07-24T05:22:58;10.90;;;3.22;;
56269;SDS011;42176;43.240;27.880;2023-07-24T05:24:58;2.67;;;2.47;;
56269;SDS011;42176;43.240;27.880;2023-07-24T05:26:59;5.47;;;3.05;;
56269;SDS011;42176;43.240;27.880;2023-07-24T05:28:59;6.00;;;3.00;;
56269;SDS011;42176;43.240;27.880;2023-07-24T05:31:03;3.33;;;2.97;;
56269;SDS011;42176;43.240;27.880;2023-07-24T05:33:04;3.15;;;2.83;;
56269;SDS011;42176;43.240;27.880;2023-07-24T05:35:05;8.13;;;2.85;;
56269;SDS011;42176;43.240;27.880;2023-07-24T05:37:05;4.30;;;2.88;;
56269;SDS011;42176;43.240;27.880;2023-07-24T05:39:06;5.22;;;3.63;;
56269;SDS011;42176;43.240;27.880;2023-07-24T05:41:06;3.58;;;3.05;;
56269;SDS011;42176;43.240;27.880;2023-07-24T05:43:06;3.28;;;2.50;;
56269;SDS011;42176;43.240;27.880;2023-07-24T05:45:07;4.53;;;2.88;;
56269;SDS011;42176;43.240;27.880;2023-07-24T05:47:08;3.05;;;2.50;;
56269;SDS011;42176;43.240;27.880;2023-07-24T05:49:09;2.95;;;2.63;;
56269;SDS011;42176;43.240;27.880;2023-07-24T05:51:09;3.90;;;3.30;;
56269;SDS011;42176;43.240;27.880;2023-07-24T05:53:09;3.50;;;2.90;;
56269;SDS011;42176;43.240;27.880;2023-07-24T05:55:10;5.78;;;3.53;;
56269;SDS011;42176;43.240;27.880;2023-07-24T05:57:11;3.15;;;2.88;;
56269;SDS011;42176;43.240;27.880;2023-07-24T05:59:11;3.25;;;2.75;;
56269;SDS011;42176;43.240;27.880;2023-07-24T06:01:12;3.10;;;2.78;;
56269;SDS011;42176;43.240;27.880;2023-07-24T06:03:12;5.40;;;4.05;;
56269;SDS011;42176;43.240;27.880;2023-07-24T06:05:13;3.92;;;3.10;;
56269;SDS011;42176;43.240;27.880;2023-07-24T06:07:13;3.38;;;2.50;;
56269;SDS011;42176;43.240;27.880;2023-07-24T06:09:13;3.28;;;2.50;;
56269;SDS011;42176;43.240;27.880;2023-07-24T06:11:14;4.10;;;3.00;;
56269;SDS011;42176;43.240;27.880;2023-07-24T06:13:15;5.47;;;3.17;;
56269;SDS011;42176;43.240;27.880;2023-07-24T06:15:16;4.20;;;3.00;;
56269;SDS011;42176;43.240;27.880;2023-07-24T06:17:16;3.53;;;3.13;;
56269;SDS011;42176;43.240;27.880;2023-07-24T06:19:16;6.60;;;3.60;;
56269;SDS011;42176;43.240;27.880;2023-07-24T06:21:17;3.10;;;2.22;;
56269;SDS011;42176;43.240;27.880;2023-07-24T06:23:17;10.20;;;3.10;;
56269;SDS011;42176;43.240;27.880;2023-07-24T06:25:18;4.90;;;2.63;;
56269;SDS011;42176;43.240;27.880;2023-07-24T06:27:18;2.95;;;2.58;;
56269;SDS011;42176;43.240;27.880;2023-07-24T06:29:19;4.35;;;2.20;;
56269;SDS011;42176;43.240;27.880;2023-07-24T06:31:19;2.70;;;2.50;;
56269;SDS011;42176;43.240;27.880;2023-07-24T06:33:20;5.32;;;2.60;;
56269;SDS011;42176;43.240;27.880;2023-07-24T06:35:21;2.55;;;2.35;;
56269;SDS011;42176;43.240;27.880;2023-07-24T06:37:21;3.72;;;2.50;;
56269;SDS011;42176;43.240;27.880;2023-07-24T06:39:22;2.38;;;2.15;;
56269;SDS011;42176;43.240;27.880;2023-07-24T06:41:22;3.30;;;1.98;;
56269;SDS011;42176;43.240;27.880;2023-07-24T06:43:23;2.30;;;2.10;;
56269;SDS011;42176;43.240;27.880;2023-07-24T06:45:24;2.90;;;2.17;;
56269;SDS011;42176;43.240;27.880;2023-07-24T06:47:24;4.00;;;2.50;;
56269;SDS011;42176;43.240;27.880;2023-07-24T06:49:25;5.40;;;2.50;;
56269;SDS011;42176;43.240;27.880;2023-07-24T06:51:25;2.50;;;2.30;;
56269;SDS011;42176;43.240;27.880;2023-07-24T06:53:26;3.90;;;2.30;;
56269;SDS011;42176;43.240;27.880;2023-07-24T06:55:26;7.35;;;2.45;;
56269;SDS011;42176;43.240;27.880;2023-07-24T06:57:26;6.00;;;3.90;;
56269;SDS011;42176;43.240;27.880;2023-07-24T06:59:27;3.13;;;2.60;;
56269;SDS011;42176;43.240;27.880;2023-07-24T07:01:27;3.13;;;2.83;;
56269;SDS011;42176;43.240;27.880;2023-07-24T07:03:28;3.35;;;2.60;;
56269;SDS011;42176;43.240;27.880;2023-07-24T07:05:28;3.92;;;2.50;;
56269;SDS011;42176;43.240;27.880;2023-07-24T07:07:28;4.05;;;2.60;;
56269;SDS011;42176;43.240;27.880;2023-07-24T07:09:29;7.00;;;2.92;;
56269;SDS011;42176;43.240;27.880;2023-07-24T07:11:30;4.13;;;2.05;;
56269;SDS011;42176;43.240;27.880;2023-07-24T07:13:30;3.30;;;2.42;;
56269;SDS011;42176;43.240;27.880;2023-07-24T07:15:31;2.20;;;2.05;;
56269;SDS011;42176;43.240;27.880;2023-07-24T07:17:31;4.60;;;2.40;;
56269;SDS011;42176;43.240;27.880;2023-07-24T07:19:31;3.97;;;1.92;;
56269;SDS011;42176;43.240;27.880;2023-07-24T07:21:32;2.08;;;1.88;;
56269;SDS011;42176;43.240;27.880;2023-07-24T07:23:33;2.75;;;1.63;;
56269;SDS011;42176;43.240;27.880;2023-07-24T07:25:33;1.77;;;1.52;;
56269;SDS011;42176;43.240;27.880;2023-07-24T07:27:33;2.67;;;2.05;;
56269;SDS011;42176;43.240;27.880;2023-07-24T07:29:34;2.92;;;2.10;;
56269;SDS011;42176;43.240;27.880;2023-07-24T07:31:34;3.70;;;1.70;;
56269;SDS011;42176;43.240;27.880;2023-07-24T07:33:35;2.47;;;1.95;;
56269;SDS011;42176;43.240;27.880;2023-07-24T07:35:35;2.10;;;2.00;;
56269;SDS011;42176;43.240;27.880;2023-07-24T07:37:36;2.83;;;2.50;;
56269;SDS011;42176;43.240;27.880;2023-07-24T07:39:37;2.88;;;2.40;;
56269;SDS011;42176;43.240;27.880;2023-07-24T07:41:37;2.28;;;2.08;;
56269;SDS011;42176;43.240;27.880;2023-07-24T07:43:38;2.83;;;2.08;;
56269;SDS011;42176;43.240;27.880;2023-07-24T07:45:39;2.63;;;2.42;;
56269;SDS011;42176;43.240;27.880;2023-07-24T07:47:39;2.10;;;2.00;;
56269;SDS011;42176;43.240;27.880;2023-07-24T07:49:40;2.20;;;2.10;;
56269;SDS011;42176;43.240;27.880;2023-07-24T07:51:41;3.85;;;2.13;;
56269;SDS011;42176;43.240;27.880;2023-07-24T07:53:42;3.03;;;2.10;;
56269;SDS011;42176;43.240;27.880;2023-07-24T07:55:42;2.20;;;2.03;;
56269;SDS011;42176;43.240;27.880;2023-07-24T07:57:43;10.00;;;2.40;;
56269;SDS011;42176;43.240;27.880;2023-07-24T07:59:43;3.40;;;2.30;;
56269;SDS011;42176;43.240;27.880;2023-07-24T08:01:43;2.53;;;2.33;;
56269;SDS011;42176;43.240;27.880;2023-07-24T08:03:45;2.97;;;2.03;;
56269;SDS011;42176;43.240;27.880;2023-07-24T08:05:46;3.47;;;2.88;;
56269;SDS011;42176;43.240;27.880;2023-07-24T08:07:46;2.38;;;2.17;;
56269;SDS011;42176;43.240;27.880;2023-07-24T08:09:47;3.13;;;2.63;;
56269;SDS011;42176;43.240;27.880;2023-07-24T08:11:47;3.25;;;2.63;;
56269;SDS011;42176;43.240;27.880;2023-07-24T08:13:48;3.00;;;2.55;;
56269;SDS011;42176;43.240;27.880;2023-07-24T08:15:49;3.80;;;3.00;;
56269;SDS011;42176;43.240;27.880;2023-07-24T08:17:49;3.88;;;2.47;;
56269;SDS011;42176;43.240;27.880;2023-07-24T08:19:50;5.65;;;2.30;;
56269;SDS011;42176;43.240;27.880;2023-07-24T08:21:50;4.18;;;2.58;;
56269;SDS011;42176;43.240;27.880;2023-07-24T08:23:51;3.15;;;2.95;;
56269;SDS011;42176;43.240;27.880;2023-07-24T08:25:52;2.20;;;2.10;;
56269;SDS011;42176;43.240;27.880;2023-07-24T08:27:53;2.30;;;2.10;;
56269;SDS011;42176;43.240;27.880;2023-07-24T08:29:53;4.03;;;1.85;;
56269;SDS011;42176;43.240;27.880;2023-07-24T08:31:54;2.10;;;1.95;;
56269;SDS011;42176;43.240;27.880;2023-07-24T08:33:54;2.33;;;2.13;;
56269;SDS011;42176;43.240;27.880;2023-07-24T08:35:59;3.63;;;2.40;;
56269;SDS011;42176;43.240;27.880;2023-07-24T08:38:03;2.10;;;1.85;;
56269;SDS011;42176;43.240;27.880;2023-07-24T08:40:04;3.83;;;2.50;;
56269;SDS011;42176;43.240;27.880;2023-07-24T08:42:11;3.35;;;2.25;;
56269;SDS011;42176;43.240;27.880;2023-07-24T08:44:12;6.65;;;2.33;;
56269;SDS011;42176;43.240;27.880;2023-07-24T08:46:13;5.15;;;2.95;;
56269;SDS011;42176;43.240;27.880;2023-07-24T08:48:15;2.58;;;2.38;;
56269;SDS011;42176;43.240;27.880;2023-07-24T08:50:16;2.50;;;2.30;;
56269;SDS011;42176;43.240;27.880;2023-07-24T08:52:17;4.13;;;2.45;;
56269;SDS011;42176;43.240;27.880;2023-07-24T08:54:18;2.90;;;2.53;;
56269;SDS011;42176;43.240;27.880;2023-07-24T08:56:20;2.50;;;2.08;;
56269;SDS011;42176;43.240;27.880;2023-07-24T08:58:20;3.17;;;1.65;;
56269;SDS011;42176;43.240;27.880;2023-07-24T09:00:21;3.55;;;2.28;;
56269;SDS011;42176;43.240;27.880;2023-07-24T09:02:21;3.35;;;1.67;;
56269;SDS011;42176;43.240;27.880;2023-07-24T09:04:21;3.10;;;2.70;;
56269;SDS011;42176;43.240;27.880;2023-07-24T09:06:22;4.20;;;2.38;;
56269;SDS011;42176;43.240;27.880;2023-07-24T09:08:29;2.10;;;1.92;;
56269;SDS011;42176;43.240;27.880;2023-07-24T09:10:36;2.67;;;2.10;;
56269;SDS011;42176;43.240;27.880;2023-07-24T09:12:37;1.98;;;1.88;;
56269;SDS011;42176;43.240;27.880;2023-07-24T09:14:38;4.38;;;2.08;;
56269;SDS011;42176;43.240;27.880;2023-07-24T09:16:38;2.85;;;2.30;;
56269;SDS011;42176;43.240;27.880;2023-07-24T09:18:39;5.30;;;2.67;;
56269;SDS011;42176;43.240;27.880;2023-07-24T09:20:41;3.42;;;2.20;;
56269;SDS011;42176;43.240;27.880;2023-07-24T09:22:49;1.67;;;1.58;;
56269;SDS011;42176;43.240;27.880;2023-07-24T09:24:54;3.28;;;2.30;;
56269;SDS011;42176;43.240;27.880;2023-07-24T09:26:55;3.25;;;2.28;;
56269;SDS011;42176;43.240;27.880;2023-07-24T09:28:56;3.25;;;2.00;;
56269;SDS011;42176;43.240;27.880;2023-07-24T09:32:57;1.92;;;1.83;;
56269;SDS011;42176;43.240;27.880;2023-07-24T09:34:59;3.05;;;2.33;;
56269;SDS011;42176;43.240;27.880;2023-07-24T09:39:00;3.33;;;2.67;;
56269;SDS011;42176;43.240;27.880;2023-07-24T09:41:01;3.88;;;1.83;;
56269;SDS011;42176;43.240;27.880;2023-07-24T09:43:18;3.15;;;1.48;;
56269;SDS011;42176;43.240;27.880;2023-07-24T09:45:19;2.72;;;1.73;;
56269;SDS011;42176;43.240;27.880;2023-07-24T09:49:20;5.00;;;1.93;;
56269;SDS011;42176;43.240;27.880;2023-07-24T09:51:21;1.65;;;1.55;;
56269;SDS011;42176;43.240;27.880;2023-07-24T09:55:34;2.78;;;2.10;;
56269;SDS011;42176;43.240;27.880;2023-07-24T09:57:44;3.55;;;2.13;;
56269;SDS011;42176;43.240;27.880;2023-07-24T10:01:46;2.13;;;2.00;;
56269;SDS011;42176;43.240;27.880;2023-07-24T10:03:48;3.58;;;2.00;;
56269;SDS011;42176;43.240;27.880;2023-07-24T10:05:49;2.58;;;2.35;;
56269;SDS011;42176;43.240;27.880;2023-07-24T10:07:53;2.40;;;2.20;;
56269;SDS011;42176;43.240;27.880;2023-07-24T10:09:54;4.20;;;2.33;;
56269;SDS011;42176;43.240;27.880;2023-07-24T10:11:56;1.50;;;1.40;;
56269;SDS011;42176;43.240;27.880;2023-07-24T10:13:57;2.90;;;2.38;;
56269;SDS011;42176;43.240;27.880;2023-07-24T10:15:58;2.47;;;2.00;;
56269;SDS011;42176;43.240;27.880;2023-07-24T10:18:02;2.22;;;2.08;;
56269;SDS011;42176;43.240;27.880;2023-07-24T10:20:10;7.25;;;2.38;;
56269;SDS011;42176;43.240;27.880;2023-07-24T10:22:18;1.70;;;1.60;;
56269;SDS011;42176;43.240;27.880;2023-07-24T10:24:19;2.08;;;1.83;;
56269;SDS011;42176;43.240;27.880;2023-07-24T10:26:24;3.25;;;1.85;;
56269;SDS011;42176;43.240;27.880;2023-07-24T10:28:30;2.13;;;1.73;;
56269;SDS011;42176;43.240;27.880;2023-07-24T10:30:31;2.53;;;1.80;;
56269;SDS011;42176;43.240;27.880;2023-07-24T10:32:32;2.63;;;2.42;;
56269;SDS011;42176;43.240;27.880;2023-07-24T10:34:36;6.10;;;2.40;;
56269;SDS011;42176;43.240;27.880;2023-07-24T10:36:38;4.53;;;2.33;;
56269;SDS011;42176;43.240;27.880;2023-07-24T10:38:40;3.83;;;2.10;;
56269;SDS011;42176;43.240;27.880;2023-07-24T10:40:41;2.20;;;2.00;;
56269;SDS011;42176;43.240;27.880;2023-07-24T10:42:44;6.15;;;2.38;;
56269;SDS011;42176;43.240;27.880;2023-07-24T10:44:44;3.95;;;2.28;;
56269;SDS011;42176;43.240;27.880;2023-07-24T10:46:45;2.67;;;2.22;;
56269;SDS011;42176;43.240;27.880;2023-07-24T10:48:46;2.50;;;2.30;;
56269;SDS011;42176;43.240;27.880;2023-07-24T10:50:48;3.00;;;1.98;;
56269;SDS011;42176;43.240;27.880;2023-07-24T10:52:50;3.00;;;2.17;;
56269;SDS011;42176;43.240;27.880;2023-07-24T10:54:51;3.90;;;2.73;;
56269;SDS011;42176;43.240;27.880;2023-07-24T10:56:58;4.90;;;2.60;;
56269;SDS011;42176;43.240;27.880;2023-07-24T10:59:02;3.33;;;2.07;;
56269;SDS011;42176;43.240;27.880;2023-07-24T11:01:04;3.25;;;2.03;;
56269;SDS011;42176;43.240;27.880;2023-07-24T11:03:09;2.65;;;1.98;;
56269;SDS011;42176;43.240;27.880;2023-07-24T11:05:13;2.33;;;2.10;;
56269;SDS011;42176;43.240;27.880;2023-07-24T11:07:15;3.63;;;2.00;;
56269;SDS011;42176;43.240;27.880;2023-07-24T11:09:15;2.85;;;2.05;;
56269;SDS011;42176;43.240;27.880;2023-07-24T11:11:15;3.88;;;2.25;;
56269;SDS011;42176;43.240;27.880;2023-07-24T11:15:23;1.35;;;1.25;;
56269;SDS011;42176;43.240;27.880;2023-07-24T11:17:37;4.07;;;2.20;;
56269;SDS011;42176;43.240;27.880;2023-07-24T11:19:40;3.10;;;2.15;;
56269;SDS011;42176;43.240;27.880;2023-07-24T11:21:40;2.65;;;2.30;;
56269;SDS011;42176;43.240;27.880;2023-07-24T11:25:52;2.03;;;1.70;;
56269;SDS011;42176;43.240;27.880;2023-07-24T11:27:54;6.65;;;2.80;;
56269;SDS011;42176;43.240;27.880;2023-07-24T11:29:54;2.65;;;2.00;;
56269;SDS011;42176;43.240;27.880;2023-07-24T11:31:55;5.00;;;2.50;;
56269;SDS011;42176;43.240;27.880;2023-07-24T11:33:56;2.78;;;2.45;;
56269;SDS011;42176;43.240;27.880;2023-07-24T11:37:58;3.03;;;2.83;;
56269;SDS011;42176;43.240;27.880;2023-07-24T11:39:59;10.38;;;2.80;;
56269;SDS011;42176;43.240;27.880;2023-07-24T11:42:04;3.95;;;2.17;;
56269;SDS011;42176;43.240;27.880;2023-07-24T11:44:05;2.95;;;2.40;;
56269;SDS011;42176;43.240;27.880;2023-07-24T11:46:06;3.97;;;2.40;;
56269;SDS011;42176;43.240;27.880;2023-07-24T11:48:09;5.18;;;2.45;;
56269;SDS011;42176;43.240;27.880;2023-07-24T11:50:11;2.60;;;1.95;;
56269;SDS011;42176;43.240;27.880;2023-07-24T11:52:11;2.38;;;2.15;;
56269;SDS011;42176;43.240;27.880;2023-07-24T11:54:12;3.45;;;2.55;;
56269;SDS011;42176;43.240;27.880;2023-07-24T11:56:14;2.22;;;1.92;;
56269;SDS011;42176;43.240;27.880;2023-07-24T11:58:16;4.63;;;3.00;;
56269;SDS011;42176;43.240;27.880;2023-07-24T12:00:20;6.07;;;3.42;;
56269;SDS011;42176;43.240;27.880;2023-07-24T12:02:21;6.47;;;4.22;;
56269;SDS011;42176;43.240;27.880;2023-07-24T12:04:22;7.03;;;4.65;;
56269;SDS011;42176;43.240;27.880;2023-07-24T12:06:22;2.97;;;2.47;;
56269;SDS011;42176;43.240;27.880;2023-07-24T12:08:31;3.42;;;2.35;;
56269;SDS011;42176;43.240;27.880;2023-07-24T12:10:35;4.18;;;2.28;;
56269;SDS011;42176;43.240;27.880;2023-07-24T12:12:43;4.32;;;3.05;;
56269;SDS011;42176;43.240;27.880;2023-07-24T12:14:44;4.38;;;3.03;;
56269;SDS011;42176;43.240;27.880;2023-07-24T12:16:45;7.15;;;4.32;;
56269;SDS011;42176;43.240;27.880;2023-07-24T12:18:45;4.35;;;2.85;;
56269;SDS011;42176;43.240;27.880;2023-07-24T12:20:46;5.57;;;3.67;;
56269;SDS011;42176;43.240;27.880;2023-07-24T12:24:47;6.10;;;3.03;;
56269;SDS011;42176;43.240;27.880;2023-07-24T12:26:48;5.72;;;1.90;;
56269;SDS011;42176;43.240;27.880;2023-07-24T12:28:48;5.20;;;3.03;;
56269;SDS011;42176;43.240;27.880;2023-07-24T12:30:49;2.92;;;2.30;;
56269;SDS011;42176;43.240;27.880;2023-07-24T12:32:49;7.85;;;3.03;;
56269;SDS011;42176;43.240;27.880;2023-07-24T12:34:50;4.95;;;3.83;;
56269;SDS011;42176;43.240;27.880;2023-07-24T12:36:54;2.55;;;1.88;;
56269;SDS011;42176;43.240;27.880;2023-07-24T12:38:54;4.53;;;2.45;;
56269;SDS011;42176;43.240;27.880;2023-07-24T12:40:55;3.40;;;2.78;;
56269;SDS011;42176;43.240;27.880;2023-07-24T12:42:55;2.78;;;2.53;;
56269;SDS011;42176;43.240;27.880;2023-07-24T12:44:55;5.15;;;2.08;;
56269;SDS011;42176;43.240;27.880;2023-07-24T12:48:57;2.47;;;2.17;;